sensor_id;sensor_type;location;lat;lon;timestamp;P1;durP1;ratioP1;P2;durP2;ratioP2
2023;SDS011;1016;48.770;9.154;2022-12-29T00:02:03;17.80;;;2.50;;
2023;SDS011;1016;48.770;9.154;2022-12-29T00:04:28;19.50;;;2.40;;
2023;SDS011;1016;48.770;9.154;2022-12-29T00:06:54;19.90;;;2.70;;
2023;SDS011;1016;48.770;9.154;2022-12-29T00:09:20;17.33;;;2.57;;
2023;SDS011;1016;48.770;9.154;2022-12-29T00:11:45;17.00;;;2.23;;
2023;SDS011;1016;48.770;9.154;2022-12-29T00:14:11;17.67;;;2.80;;
2023;SDS011;1016;48.770;9.154;2022-12-29T00:16:56;17.70;;;2.73;;
2023;SDS011;1016;48.770;9.154;2022-12-29T00:19:22;17.17;;;2.37;;
2023;SDS011;1016;48.770;9.154;2022-12-29T00:22:11;16.90;;;2.00;;
2023;SDS011;1016;48.770;9.154;2022-12-29T00:24:56;17.17;;;2.40;;
2023;SDS011;1016;48.770;9.154;2022-12-29T00:27:40;16.80;;;2.53;;
2023;SDS011;1016;48.770;9.154;2022-12-29T00:30:24;17.20;;;2.40;;
2023;SDS011;1016;48.770;9.154;2022-12-29T00:33:09;18.60;;;2.70;;
2023;SDS011;1016;48.770;9.154;2022-12-29T00:35:57;17.40;;;2.57;;
2023;SDS011;1016;48.770;9.154;2022-12-29T00:38:28;16.63;;;2.50;;
2023;SDS011;1016;48.770;9.154;2022-12-29T00:41:14;17.47;;;2.40;;
2023;SDS011;1016;48.770;9.154;2022-12-29T00:43:58;17.40;;;2.10;;
2023;SDS011;1016;48.770;9.154;2022-12-29T00:46:30;16.63;;;2.40;;
2023;SDS011;1016;48.770;9.154;2022-12-29T00:48:56;16.47;;;2.17;;
2023;SDS011;1016;48.770;9.154;2022-12-29T00:51:40;16.67;;;2.13;;
2023;SDS011;1016;48.770;9.154;2022-12-29T00:54:06;16.80;;;2.30;;
2023;SDS011;1016;48.770;9.154;2022-12-29T00:56:31;16.60;;;2.40;;
2023;SDS011;1016;48.770;9.154;2022-12-29T00:59:04;18.13;;;2.60;;
2023;SDS011;1016;48.770;9.154;2022-12-29T01:01:32;16.87;;;2.20;;
2023;SDS011;1016;48.770;9.154;2022-12-29T01:03:58;16.20;;;1.90;;
2023;SDS011;1016;48.770;9.154;2022-12-29T01:06:23;16.23;;;2.20;;
2023;SDS011;1016;48.770;9.154;2022-12-29T01:08:49;19.37;;;2.50;;
2023;SDS011;1016;48.770;9.154;2022-12-29T01:11:35;19.37;;;2.57;;
2023;SDS011;1016;48.770;9.154;2022-12-29T01:14:01;16.97;;;2.10;;
2023;SDS011;1016;48.770;9.154;2022-12-29T01:16:27;19.33;;;2.23;;
2023;SDS011;1016;48.770;9.154;2022-12-29T01:18:52;18.00;;;2.40;;
2023;SDS011;1016;48.770;9.154;2022-12-29T01:21:18;17.30;;;2.33;;
2023;SDS011;1016;48.770;9.154;2022-12-29T01:23:43;15.70;;;1.77;;
2023;SDS011;1016;48.770;9.154;2022-12-29T01:26:09;19.10;;;2.10;;
2023;SDS011;1016;48.770;9.154;2022-12-29T01:28:36;16.40;;;2.00;;
2023;SDS011;1016;48.770;9.154;2022-12-29T01:31:03;16.50;;;1.90;;
2023;SDS011;1016;48.770;9.154;2022-12-29T01:33:29;16.80;;;1.90;;
2023;SDS011;1016;48.770;9.154;2022-12-29T01:35:59;16.63;;;1.80;;
2023;SDS011;1016;48.770;9.154;2022-12-29T01:38:32;18.20;;;2.20;;
2023;SDS011;1016;48.770;9.154;2022-12-29T01:40:59;16.37;;;1.80;;
2023;SDS011;1016;48.770;9.154;2022-12-29T01:43:44;17.33;;;2.17;;
2023;SDS011;1016;48.770;9.154;2022-12-29T01:51:33;16.00;;;1.90;;
2023;SDS011;1016;48.770;9.154;2022-12-29T01:54:04;20.73;;;2.40;;
2023;SDS011;1016;48.770;9.154;2022-12-29T01:56:34;16.10;;;1.90;;
2023;SDS011;1016;48.770;9.154;2022-12-29T01:59:02;16.10;;;2.20;;
2023;SDS011;1016;48.770;9.154;2022-12-29T02:01:31;15.70;;;1.70;;
2023;SDS011;1016;48.770;9.154;2022-12-29T02:03:57;15.40;;;1.70;;
2023;SDS011;1016;48.770;9.154;2022-12-29T02:06:24;15.70;;;1.50;;
2023;SDS011;1016;48.770;9.154;2022-12-29T02:08:55;15.80;;;1.80;;
2023;SDS011;1016;48.770;9.154;2022-12-29T02:11:21;17.80;;;2.50;;
2023;SDS011;1016;48.770;9.154;2022-12-29T02:13:50;17.03;;;2.20;;
2023;SDS011;1016;48.770;9.154;2022-12-29T02:19:23;16.73;;;1.80;;
2023;SDS011;1016;48.770;9.154;2022-12-29T02:22:09;15.70;;;1.70;;
2023;SDS011;1016;48.770;9.154;2022-12-29T02:27:48;17.00;;;2.13;;
2023;SDS011;1016;48.770;9.154;2022-12-29T02:41:44;15.53;;;1.80;;
2023;SDS011;1016;48.770;9.154;2022-12-29T02:47:05;16.67;;;1.90;;
2023;SDS011;1016;48.770;9.154;2022-12-29T02:49:48;15.90;;;1.70;;
2023;SDS011;1016;48.770;9.154;2022-12-29T02:52:32;16.87;;;2.00;;
2023;SDS011;1016;48.770;9.154;2022-12-29T02:55:02;16.60;;;2.07;;
2023;SDS011;1016;48.770;9.154;2022-12-29T02:57:29;17.20;;;1.70;;
2023;SDS011;1016;48.770;9.154;2022-12-29T02:59:59;17.83;;;1.63;;
2023;SDS011;1016;48.770;9.154;2022-12-29T03:05:16;16.50;;;2.00;;
2023;SDS011;1016;48.770;9.154;2022-12-29T03:10:55;16.20;;;1.87;;
2023;SDS011;1016;48.770;9.154;2022-12-29T03:19:40;18.53;;;2.10;;
2023;SDS011;1016;48.770;9.154;2022-12-29T03:22:19;15.97;;;1.80;;
2023;SDS011;1016;48.770;9.154;2022-12-29T03:24:54;17.27;;;1.90;;
2023;SDS011;1016;48.770;9.154;2022-12-29T03:27:31;16.80;;;2.03;;
2023;SDS011;1016;48.770;9.154;2022-12-29T03:30:02;16.57;;;1.70;;
2023;SDS011;1016;48.770;9.154;2022-12-29T03:32:31;15.47;;;1.50;;
2023;SDS011;1016;48.770;9.154;2022-12-29T03:35:02;16.67;;;1.87;;
2023;SDS011;1016;48.770;9.154;2022-12-29T03:37:30;16.43;;;1.70;;
2023;SDS011;1016;48.770;9.154;2022-12-29T03:40:02;16.23;;;1.80;;
2023;SDS011;1016;48.770;9.154;2022-12-29T03:42:29;17.60;;;1.70;;
2023;SDS011;1016;48.770;9.154;2022-12-29T03:44:57;15.80;;;1.70;;
2023;SDS011;1016;48.770;9.154;2022-12-29T03:47:23;16.33;;;1.60;;
2023;SDS011;1016;48.770;9.154;2022-12-29T03:49:49;16.67;;;1.50;;
2023;SDS011;1016;48.770;9.154;2022-12-29T03:52:15;17.30;;;1.50;;
2023;SDS011;1016;48.770;9.154;2022-12-29T03:54:41;15.47;;;1.50;;
2023;SDS011;1016;48.770;9.154;2022-12-29T03:57:06;16.17;;;1.53;;
2023;SDS011;1016;48.770;9.154;2022-12-29T03:59:32;16.00;;;1.57;;
2023;SDS011;1016;48.770;9.154;2022-12-29T04:01:58;16.10;;;1.50;;
2023;SDS011;1016;48.770;9.154;2022-12-29T04:04:23;15.70;;;1.43;;
2023;SDS011;1016;48.770;9.154;2022-12-29T04:06:49;17.23;;;1.50;;
2023;SDS011;1016;48.770;9.154;2022-12-29T04:09:14;16.00;;;1.37;;
2023;SDS011;1016;48.770;9.154;2022-12-29T04:11:40;16.17;;;1.50;;
2023;SDS011;1016;48.770;9.154;2022-12-29T04:14:05;16.47;;;1.67;;
2023;SDS011;1016;48.770;9.154;2022-12-29T04:16:31;17.17;;;1.80;;
2023;SDS011;1016;48.770;9.154;2022-12-29T04:18:58;16.07;;;1.33;;
2023;SDS011;1016;48.770;9.154;2022-12-29T04:21:23;16.40;;;1.60;;
2023;SDS011;1016;48.770;9.154;2022-12-29T04:23:49;15.33;;;1.43;;
2023;SDS011;1016;48.770;9.154;2022-12-29T04:26:14;19.67;;;1.40;;
2023;SDS011;1016;48.770;9.154;2022-12-29T04:28:40;16.40;;;1.30;;
2023;SDS011;1016;48.770;9.154;2022-12-29T04:31:05;16.50;;;1.67;;
2023;SDS011;1016;48.770;9.154;2022-12-29T04:33:31;15.37;;;1.37;;
2023;SDS011;1016;48.770;9.154;2022-12-29T04:35:56;17.23;;;1.40;;
2023;SDS011;1016;48.770;9.154;2022-12-29T04:38:23;16.47;;;1.50;;
2023;SDS011;1016;48.770;9.154;2022-12-29T04:40:49;20.53;;;1.60;;
2023;SDS011;1016;48.770;9.154;2022-12-29T04:43:16;15.50;;;1.47;;
2023;SDS011;1016;48.770;9.154;2022-12-29T04:45:44;16.00;;;1.70;;
2023;SDS011;1016;48.770;9.154;2022-12-29T04:48:10;15.17;;;1.50;;
2023;SDS011;1016;48.770;9.154;2022-12-29T04:50:35;16.60;;;1.43;;
2023;SDS011;1016;48.770;9.154;2022-12-29T04:53:01;16.90;;;1.90;;
2023;SDS011;1016;48.770;9.154;2022-12-29T04:55:27;16.30;;;1.50;;
2023;SDS011;1016;48.770;9.154;2022-12-29T04:57:52;16.53;;;1.60;;
2023;SDS011;1016;48.770;9.154;2022-12-29T05:00:18;15.77;;;1.47;;
2023;SDS011;1016;48.770;9.154;2022-12-29T05:02:43;16.37;;;1.33;;
2023;SDS011;1016;48.770;9.154;2022-12-29T05:05:09;18.43;;;1.90;;
2023;SDS011;1016;48.770;9.154;2022-12-29T05:07:35;16.63;;;1.70;;
2023;SDS011;1016;48.770;9.154;2022-12-29T05:10:00;16.80;;;1.60;;
2023;SDS011;1016;48.770;9.154;2022-12-29T05:12:29;18.27;;;2.10;;
2023;SDS011;1016;48.770;9.154;2022-12-29T05:14:58;15.83;;;1.67;;
2023;SDS011;1016;48.770;9.154;2022-12-29T05:17:24;15.70;;;1.70;;
2023;SDS011;1016;48.770;9.154;2022-12-29T05:19:49;16.23;;;1.93;;
2023;SDS011;1016;48.770;9.154;2022-12-29T05:22:15;16.37;;;2.07;;
2023;SDS011;1016;48.770;9.154;2022-12-29T05:24:41;15.60;;;1.57;;
2023;SDS011;1016;48.770;9.154;2022-12-29T05:27:06;16.50;;;1.47;;
2023;SDS011;1016;48.770;9.154;2022-12-29T05:29:31;16.43;;;1.70;;
2023;SDS011;1016;48.770;9.154;2022-12-29T05:31:57;15.87;;;1.70;;
2023;SDS011;1016;48.770;9.154;2022-12-29T05:34:22;16.20;;;1.33;;
2023;SDS011;1016;48.770;9.154;2022-12-29T05:36:48;15.90;;;1.70;;
2023;SDS011;1016;48.770;9.154;2022-12-29T05:39:14;17.10;;;1.60;;
2023;SDS011;1016;48.770;9.154;2022-12-29T05:41:39;16.20;;;1.77;;
2023;SDS011;1016;48.770;9.154;2022-12-29T05:44:05;15.50;;;1.63;;
2023;SDS011;1016;48.770;9.154;2022-12-29T05:46:30;17.20;;;1.63;;
2023;SDS011;1016;48.770;9.154;2022-12-29T05:48:56;16.00;;;1.70;;
2023;SDS011;1016;48.770;9.154;2022-12-29T05:51:21;15.70;;;1.50;;
2023;SDS011;1016;48.770;9.154;2022-12-29T05:53:47;16.10;;;1.70;;
2023;SDS011;1016;48.770;9.154;2022-12-29T05:56:12;18.60;;;1.80;;
2023;SDS011;1016;48.770;9.154;2022-12-29T05:58:38;15.77;;;1.80;;
2023;SDS011;1016;48.770;9.154;2022-12-29T06:01:03;15.50;;;1.40;;
2023;SDS011;1016;48.770;9.154;2022-12-29T06:03:29;16.30;;;1.60;;
2023;SDS011;1016;48.770;9.154;2022-12-29T06:05:54;15.87;;;1.80;;
2023;SDS011;1016;48.770;9.154;2022-12-29T06:08:20;16.40;;;2.03;;
2023;SDS011;1016;48.770;9.154;2022-12-29T06:10:46;16.30;;;2.23;;
2023;SDS011;1016;48.770;9.154;2022-12-29T06:13:11;15.77;;;1.80;;
2023;SDS011;1016;48.770;9.154;2022-12-29T06:15:37;17.00;;;1.73;;
2023;SDS011;1016;48.770;9.154;2022-12-29T06:18:02;18.03;;;1.90;;
2023;SDS011;1016;48.770;9.154;2022-12-29T06:20:28;16.17;;;2.00;;
2023;SDS011;1016;48.770;9.154;2022-12-29T06:22:53;16.37;;;1.50;;
2023;SDS011;1016;48.770;9.154;2022-12-29T06:25:19;17.00;;;1.80;;
2023;SDS011;1016;48.770;9.154;2022-12-29T06:27:44;16.70;;;1.97;;
2023;SDS011;1016;48.770;9.154;2022-12-29T06:30:10;15.90;;;1.63;;
2023;SDS011;1016;48.770;9.154;2022-12-29T06:32:36;16.50;;;1.70;;
2023;SDS011;1016;48.770;9.154;2022-12-29T06:35:03;16.97;;;1.70;;
2023;SDS011;1016;48.770;9.154;2022-12-29T06:37:29;16.33;;;1.87;;
2023;SDS011;1016;48.770;9.154;2022-12-29T06:39:54;16.67;;;1.80;;
2023;SDS011;1016;48.770;9.154;2022-12-29T06:42:20;16.00;;;1.80;;
2023;SDS011;1016;48.770;9.154;2022-12-29T06:44:45;17.70;;;1.87;;
2023;SDS011;1016;48.770;9.154;2022-12-29T06:47:11;17.70;;;1.50;;
2023;SDS011;1016;48.770;9.154;2022-12-29T06:49:36;16.10;;;1.50;;
2023;SDS011;1016;48.770;9.154;2022-12-29T06:52:02;17.33;;;1.80;;
2023;SDS011;1016;48.770;9.154;2022-12-29T06:54:29;15.60;;;1.53;;
2023;SDS011;1016;48.770;9.154;2022-12-29T06:56:55;17.20;;;1.90;;
2023;SDS011;1016;48.770;9.154;2022-12-29T06:59:21;17.40;;;1.47;;
2023;SDS011;1016;48.770;9.154;2022-12-29T07:01:47;16.90;;;1.77;;
2023;SDS011;1016;48.770;9.154;2022-12-29T07:04:12;17.53;;;2.10;;
2023;SDS011;1016;48.770;9.154;2022-12-29T07:06:38;18.60;;;1.73;;
2023;SDS011;1016;48.770;9.154;2022-12-29T07:09:05;17.70;;;1.93;;
2023;SDS011;1016;48.770;9.154;2022-12-29T07:11:31;16.73;;;1.80;;
2023;SDS011;1016;48.770;9.154;2022-12-29T07:13:57;17.50;;;1.77;;
2023;SDS011;1016;48.770;9.154;2022-12-29T07:16:22;16.27;;;1.67;;
2023;SDS011;1016;48.770;9.154;2022-12-29T07:18:48;16.77;;;1.97;;
2023;SDS011;1016;48.770;9.154;2022-12-29T07:21:13;16.30;;;1.73;;
2023;SDS011;1016;48.770;9.154;2022-12-29T07:23:39;17.50;;;1.90;;
2023;SDS011;1016;48.770;9.154;2022-12-29T07:26:06;17.37;;;1.87;;
2023;SDS011;1016;48.770;9.154;2022-12-29T07:28:33;17.60;;;1.80;;
2023;SDS011;1016;48.770;9.154;2022-12-29T07:31:00;16.90;;;2.40;;
2023;SDS011;1016;48.770;9.154;2022-12-29T07:33:28;16.70;;;2.17;;
2023;SDS011;1016;48.770;9.154;2022-12-29T07:35:54;16.10;;;1.70;;
2023;SDS011;1016;48.770;9.154;2022-12-29T07:38:20;16.10;;;1.93;;
2023;SDS011;1016;48.770;9.154;2022-12-29T07:40:45;16.50;;;2.20;;
2023;SDS011;1016;48.770;9.154;2022-12-29T07:43:11;17.33;;;2.20;;
2023;SDS011;1016;48.770;9.154;2022-12-29T07:45:36;17.23;;;1.90;;
2023;SDS011;1016;48.770;9.154;2022-12-29T07:48:02;16.33;;;1.80;;
2023;SDS011;1016;48.770;9.154;2022-12-29T07:50:28;16.60;;;2.30;;
2023;SDS011;1016;48.770;9.154;2022-12-29T07:52:53;16.73;;;1.97;;
2023;SDS011;1016;48.770;9.154;2022-12-29T07:55:19;17.00;;;2.50;;
2023;SDS011;1016;48.770;9.154;2022-12-29T07:57:44;16.83;;;2.13;;
2023;SDS011;1016;48.770;9.154;2022-12-29T08:00:10;18.70;;;2.40;;
2023;SDS011;1016;48.770;9.154;2022-12-29T08:02:36;18.13;;;2.37;;
2023;SDS011;1016;48.770;9.154;2022-12-29T08:05:02;17.93;;;2.10;;
2023;SDS011;1016;48.770;9.154;2022-12-29T08:07:27;17.50;;;2.37;;
2023;SDS011;1016;48.770;9.154;2022-12-29T08:09:53;18.30;;;1.80;;
2023;SDS011;1016;48.770;9.154;2022-12-29T08:12:18;18.10;;;2.27;;
2023;SDS011;1016;48.770;9.154;2022-12-29T08:14:44;16.83;;;2.40;;
2023;SDS011;1016;48.770;9.154;2022-12-29T08:17:10;16.03;;;2.17;;
2023;SDS011;1016;48.770;9.154;2022-12-29T08:19:36;17.67;;;2.50;;
2023;SDS011;1016;48.770;9.154;2022-12-29T08:22:02;16.70;;;2.53;;
2023;SDS011;1016;48.770;9.154;2022-12-29T08:24:27;18.20;;;2.77;;
2023;SDS011;1016;48.770;9.154;2022-12-29T08:26:53;17.47;;;2.87;;
2023;SDS011;1016;48.770;9.154;2022-12-29T08:29:19;18.23;;;2.77;;
2023;SDS011;1016;48.770;9.154;2022-12-29T08:31:46;18.90;;;2.40;;
2023;SDS011;1016;48.770;9.154;2022-12-29T08:34:12;17.10;;;2.33;;
2023;SDS011;1016;48.770;9.154;2022-12-29T08:36:38;18.07;;;2.63;;
2023;SDS011;1016;48.770;9.154;2022-12-29T08:39:03;17.50;;;2.40;;
2023;SDS011;1016;48.770;9.154;2022-12-29T08:41:29;16.50;;;2.60;;
2023;SDS011;1016;48.770;9.154;2022-12-29T08:43:55;17.67;;;2.60;;
2023;SDS011;1016;48.770;9.154;2022-12-29T08:46:20;21.87;;;3.00;;
2023;SDS011;1016;48.770;9.154;2022-12-29T08:48:46;17.90;;;2.30;;
2023;SDS011;1016;48.770;9.154;2022-12-29T08:51:11;17.20;;;2.33;;
2023;SDS011;1016;48.770;9.154;2022-12-29T08:53:37;18.77;;;2.50;;
2023;SDS011;1016;48.770;9.154;2022-12-29T08:56:03;16.30;;;1.80;;
2023;SDS011;1016;48.770;9.154;2022-12-29T08:58:29;17.20;;;2.20;;
2023;SDS011;1016;48.770;9.154;2022-12-29T09:00:55;17.80;;;2.30;;
2023;SDS011;1016;48.770;9.154;2022-12-29T09:03:22;17.07;;;3.00;;
2023;SDS011;1016;48.770;9.154;2022-12-29T09:05:49;18.23;;;2.93;;
2023;SDS011;1016;48.770;9.154;2022-12-29T09:08:15;16.40;;;2.23;;
2023;SDS011;1016;48.770;9.154;2022-12-29T09:10:42;16.60;;;2.10;;
2023;SDS011;1016;48.770;9.154;2022-12-29T09:13:08;16.63;;;2.00;;
2023;SDS011;1016;48.770;9.154;2022-12-29T09:15:34;17.17;;;1.90;;
2023;SDS011;1016;48.770;9.154;2022-12-29T09:17:59;17.87;;;2.57;;
2023;SDS011;1016;48.770;9.154;2022-12-29T09:20:25;15.73;;;1.90;;
2023;SDS011;1016;48.770;9.154;2022-12-29T09:22:50;18.33;;;2.00;;
2023;SDS011;1016;48.770;9.154;2022-12-29T09:25:16;16.73;;;2.40;;
2023;SDS011;1016;48.770;9.154;2022-12-29T09:27:41;19.40;;;2.40;;
2023;SDS011;1016;48.770;9.154;2022-12-29T09:30:09;17.60;;;2.13;;
2023;SDS011;1016;48.770;9.154;2022-12-29T09:32:36;19.73;;;2.17;;
2023;SDS011;1016;48.770;9.154;2022-12-29T09:35:02;16.20;;;1.83;;
2023;SDS011;1016;48.770;9.154;2022-12-29T09:37:27;17.83;;;2.30;;
2023;SDS011;1016;48.770;9.154;2022-12-29T09:39:53;20.00;;;2.17;;
2023;SDS011;1016;48.770;9.154;2022-12-29T09:42:19;17.40;;;1.90;;
2023;SDS011;1016;48.770;9.154;2022-12-29T09:47:42;17.13;;;1.60;;
2023;SDS011;1016;48.770;9.154;2022-12-29T09:50:22;17.13;;;1.87;;
2023;SDS011;1016;48.770;9.154;2022-12-29T09:52:50;17.60;;;1.83;;
2023;SDS011;1016;48.770;9.154;2022-12-29T09:55:41;19.77;;;1.63;;
2023;SDS011;1016;48.770;9.154;2022-12-29T09:58:14;17.40;;;1.70;;
2023;SDS011;1016;48.770;9.154;2022-12-29T10:01:06;16.70;;;1.60;;
2023;SDS011;1016;48.770;9.154;2022-12-29T10:03:49;16.00;;;1.80;;
2023;SDS011;1016;48.770;9.154;2022-12-29T10:19:53;15.80;;;1.50;;
2023;SDS011;1016;48.770;9.154;2022-12-29T10:24:55;17.57;;;1.80;;
2023;SDS011;1016;48.770;9.154;2022-12-29T10:27:21;17.63;;;1.70;;
2023;SDS011;1016;48.770;9.154;2022-12-29T10:29:50;16.60;;;1.40;;
2023;SDS011;1016;48.770;9.154;2022-12-29T10:32:24;15.57;;;1.43;;
2023;SDS011;1016;48.770;9.154;2022-12-29T10:34:51;15.93;;;1.70;;
2023;SDS011;1016;48.770;9.154;2022-12-29T10:38:05;17.67;;;1.90;;
2023;SDS011;1016;48.770;9.154;2022-12-29T10:43:21;16.17;;;1.67;;
2023;SDS011;1016;48.770;9.154;2022-12-29T10:45:52;17.27;;;1.90;;
2023;SDS011;1016;48.770;9.154;2022-12-29T10:48:20;16.60;;;1.73;;
2023;SDS011;1016;48.770;9.154;2022-12-29T10:50:49;17.30;;;1.83;;
2023;SDS011;1016;48.770;9.154;2022-12-29T10:53:23;16.10;;;1.70;;
2023;SDS011;1016;48.770;9.154;2022-12-29T10:55:52;16.57;;;1.77;;
2023;SDS011;1016;48.770;9.154;2022-12-29T10:58:19;16.33;;;1.50;;
2023;SDS011;1016;48.770;9.154;2022-12-29T11:00:50;17.60;;;1.50;;
2023;SDS011;1016;48.770;9.154;2022-12-29T11:05:49;18.00;;;1.60;;
2023;SDS011;1016;48.770;9.154;2022-12-29T11:08:23;16.80;;;1.60;;
2023;SDS011;1016;48.770;9.154;2022-12-29T11:10:59;17.60;;;2.07;;
2023;SDS011;1016;48.770;9.154;2022-12-29T11:13:28;16.53;;;1.50;;
2023;SDS011;1016;48.770;9.154;2022-12-29T11:15:55;17.10;;;1.70;;
2023;SDS011;1016;48.770;9.154;2022-12-29T11:20:49;19.40;;;1.80;;
2023;SDS011;1016;48.770;9.154;2022-12-29T11:23:23;17.90;;;1.60;;
2023;SDS011;1016;48.770;9.154;2022-12-29T11:29:25;16.30;;;1.60;;
2023;SDS011;1016;48.770;9.154;2022-12-29T11:31:41;17.03;;;2.03;;
2023;SDS011;1016;48.770;9.154;2022-12-29T11:34:18;17.47;;;2.00;;
2023;SDS011;1016;48.770;9.154;2022-12-29T11:36:44;16.50;;;1.53;;
2023;SDS011;1016;48.770;9.154;2022-12-29T11:39:22;17.37;;;1.60;;
2023;SDS011;1016;48.770;9.154;2022-12-29T11:41:56;17.80;;;2.03;;
2023;SDS011;1016;48.770;9.154;2022-12-29T11:44:23;16.80;;;1.87;;
2023;SDS011;1016;48.770;9.154;2022-12-29T11:46:49;17.40;;;1.73;;
2023;SDS011;1016;48.770;9.154;2022-12-29T11:49:20;16.40;;;1.80;;
2023;SDS011;1016;48.770;9.154;2022-12-29T11:51:49;16.67;;;1.80;;
2023;SDS011;1016;48.770;9.154;2022-12-29T11:54:19;16.80;;;1.60;;
2023;SDS011;1016;48.770;9.154;2022-12-29T11:56:55;16.07;;;1.50;;
2023;SDS011;1016;48.770;9.154;2022-12-29T12:01:52;16.63;;;1.93;;
2023;SDS011;1016;48.770;9.154;2022-12-29T12:04:19;16.30;;;1.80;;
2023;SDS011;1016;48.770;9.154;2022-12-29T12:07:00;16.97;;;1.70;;
2023;SDS011;1016;48.770;9.154;2022-12-29T12:09:36;16.80;;;1.90;;
2023;SDS011;1016;48.770;9.154;2022-12-29T12:12:08;16.20;;;1.50;;
2023;SDS011;1016;48.770;9.154;2022-12-29T12:14:58;17.93;;;1.93;;
2023;SDS011;1016;48.770;9.154;2022-12-29T12:17:28;17.13;;;1.90;;
2023;SDS011;1016;48.770;9.154;2022-12-29T12:20:17;20.70;;;2.13;;
2023;SDS011;1016;48.770;9.154;2022-12-29T12:22:58;16.00;;;1.53;;
2023;SDS011;1016;48.770;9.154;2022-12-29T12:25:38;18.13;;;1.70;;
2023;SDS011;1016;48.770;9.154;2022-12-29T12:28:20;15.83;;;1.57;;
2023;SDS011;1016;48.770;9.154;2022-12-29T12:31:04;16.37;;;1.47;;
2023;SDS011;1016;48.770;9.154;2022-12-29T12:33:41;16.13;;;1.50;;
2023;SDS011;1016;48.770;9.154;2022-12-29T12:41:57;17.67;;;1.80;;
2023;SDS011;1016;48.770;9.154;2022-12-29T12:44:46;16.53;;;1.43;;
2023;SDS011;1016;48.770;9.154;2022-12-29T12:50:35;16.70;;;1.90;;
2023;SDS011;1016;48.770;9.154;2022-12-29T12:53:19;17.20;;;1.70;;
2023;SDS011;1016;48.770;9.154;2022-12-29T13:01:37;17.47;;;1.93;;
2023;SDS011;1016;48.770;9.154;2022-12-29T13:04:32;16.80;;;1.80;;
2023;SDS011;1016;48.770;9.154;2022-12-29T13:07:10;17.57;;;1.87;;
2023;SDS011;1016;48.770;9.154;2022-12-29T13:15:45;17.17;;;2.20;;
2023;SDS011;1016;48.770;9.154;2022-12-29T13:18:22;16.70;;;1.90;;
2023;SDS011;1016;48.770;9.154;2022-12-29T13:23:47;16.20;;;1.60;;
2023;SDS011;1016;48.770;9.154;2022-12-29T13:26:32;16.43;;;1.70;;
2023;SDS011;1016;48.770;9.154;2022-12-29T13:29:16;16.27;;;1.60;;
2023;SDS011;1016;48.770;9.154;2022-12-29T13:36:58;17.73;;;1.90;;
2023;SDS011;1016;48.770;9.154;2022-12-29T13:42:00;17.53;;;1.70;;
2023;SDS011;1016;48.770;9.154;2022-12-29T13:44:28;19.80;;;2.10;;
2023;SDS011;1016;48.770;9.154;2022-12-29T13:47:14;16.87;;;1.80;;
2023;SDS011;1016;48.770;9.154;2022-12-29T13:49:46;17.60;;;2.00;;
2023;SDS011;1016;48.770;9.154;2022-12-29T13:52:16;17.17;;;1.87;;
2023;SDS011;1016;48.770;9.154;2022-12-29T14:00:33;15.70;;;1.80;;
2023;SDS011;1016;48.770;9.154;2022-12-29T14:08:45;17.13;;;1.97;;
2023;SDS011;1016;48.770;9.154;2022-12-29T14:11:11;16.10;;;1.90;;
2023;SDS011;1016;48.770;9.154;2022-12-29T14:13:41;16.43;;;1.70;;
2023;SDS011;1016;48.770;9.154;2022-12-29T14:16:26;16.27;;;1.87;;
2023;SDS011;1016;48.770;9.154;2022-12-29T14:18:54;18.20;;;2.13;;
2023;SDS011;1016;48.770;9.154;2022-12-29T14:21:28;17.30;;;1.70;;
2023;SDS011;1016;48.770;9.154;2022-12-29T14:23:56;18.07;;;2.10;;
2023;SDS011;1016;48.770;9.154;2022-12-29T14:26:46;18.10;;;2.03;;
2023;SDS011;1016;48.770;9.154;2022-12-29T14:29:56;18.40;;;2.40;;
2023;SDS011;1016;48.770;9.154;2022-12-29T14:32:09;17.30;;;2.13;;
2023;SDS011;1016;48.770;9.154;2022-12-29T14:37:23;16.10;;;2.00;;
2023;SDS011;1016;48.770;9.154;2022-12-29T14:40:16;17.07;;;2.27;;
2023;SDS011;1016;48.770;9.154;2022-12-29T14:42:44;16.40;;;1.90;;
2023;SDS011;1016;48.770;9.154;2022-12-29T14:47:40;16.90;;;2.10;;
2023;SDS011;1016;48.770;9.154;2022-12-29T14:52:55;16.57;;;1.90;;
2023;SDS011;1016;48.770;9.154;2022-12-29T14:55:37;17.27;;;2.20;;
2023;SDS011;1016;48.770;9.154;2022-12-29T14:58:06;17.87;;;2.50;;
2023;SDS011;1016;48.770;9.154;2022-12-29T15:01:03;16.97;;;2.23;;
2023;SDS011;1016;48.770;9.154;2022-12-29T15:03:30;17.60;;;2.10;;
2023;SDS011;1016;48.770;9.154;2022-12-29T15:08:33;17.00;;;2.30;;
2023;SDS011;1016;48.770;9.154;2022-12-29T15:11:11;17.53;;;2.20;;
2023;SDS011;1016;48.770;9.154;2022-12-29T15:13:41;16.60;;;2.37;;
2023;SDS011;1016;48.770;9.154;2022-12-29T15:19:03;16.57;;;1.80;;
2023;SDS011;1016;48.770;9.154;2022-12-29T15:21:31;16.17;;;2.00;;
2023;SDS011;1016;48.770;9.154;2022-12-29T15:23:58;16.07;;;2.00;;
2023;SDS011;1016;48.770;9.154;2022-12-29T15:26:35;16.67;;;2.30;;
2023;SDS011;1016;48.770;9.154;2022-12-29T15:29:03;16.67;;;2.83;;
2023;SDS011;1016;48.770;9.154;2022-12-29T15:31:28;18.40;;;2.33;;
2023;SDS011;1016;48.770;9.154;2022-12-29T15:33:54;16.90;;;2.53;;
2023;SDS011;1016;48.770;9.154;2022-12-29T15:36:28;19.73;;;3.50;;
2023;SDS011;1016;48.770;9.154;2022-12-29T15:39:01;16.93;;;2.20;;
2023;SDS011;1016;48.770;9.154;2022-12-29T15:41:44;17.50;;;2.30;;
2023;SDS011;1016;48.770;9.154;2022-12-29T15:44:28;16.90;;;2.03;;
2023;SDS011;1016;48.770;9.154;2022-12-29T15:47:03;17.23;;;2.10;;
2023;SDS011;1016;48.770;9.154;2022-12-29T15:49:30;17.40;;;2.73;;
2023;SDS011;1016;48.770;9.154;2022-12-29T15:51:57;16.73;;;2.03;;
2023;SDS011;1016;48.770;9.154;2022-12-29T15:54:23;19.17;;;2.27;;
2023;SDS011;1016;48.770;9.154;2022-12-29T15:56:49;19.37;;;3.87;;
2023;SDS011;1016;48.770;9.154;2022-12-29T15:59:25;18.00;;;2.50;;
2023;SDS011;1016;48.770;9.154;2022-12-29T16:01:53;19.17;;;3.37;;
2023;SDS011;1016;48.770;9.154;2022-12-29T16:04:20;17.90;;;2.23;;
2023;SDS011;1016;48.770;9.154;2022-12-29T16:07:02;15.23;;;1.50;;
2023;SDS011;1016;48.770;9.154;2022-12-29T16:09:34;15.97;;;1.30;;
2023;SDS011;1016;48.770;9.154;2022-12-29T16:12:06;15.77;;;1.10;;
2023;SDS011;1016;48.770;9.154;2022-12-29T16:14:48;14.70;;;1.00;;
2023;SDS011;1016;48.770;9.154;2022-12-29T16:17:23;15.10;;;1.20;;
2023;SDS011;1016;48.770;9.154;2022-12-29T16:19:56;14.67;;;0.90;;
2023;SDS011;1016;48.770;9.154;2022-12-29T16:22:31;14.50;;;0.87;;
2023;SDS011;1016;48.770;9.154;2022-12-29T16:25:22;14.97;;;1.00;;
2023;SDS011;1016;48.770;9.154;2022-12-29T16:27:56;14.53;;;0.83;;
2023;SDS011;1016;48.770;9.154;2022-12-29T16:30:24;14.83;;;0.90;;
2023;SDS011;1016;48.770;9.154;2022-12-29T16:32:52;14.60;;;0.90;;
2023;SDS011;1016;48.770;9.154;2022-12-29T16:35:23;15.40;;;1.00;;
2023;SDS011;1016;48.770;9.154;2022-12-29T16:38:14;14.63;;;1.10;;
2023;SDS011;1016;48.770;9.154;2022-12-29T16:40:38;14.80;;;1.10;;
2023;SDS011;1016;48.770;9.154;2022-12-29T16:43:25;14.60;;;1.00;;
2023;SDS011;1016;48.770;9.154;2022-12-29T16:48:28;15.23;;;1.20;;
2023;SDS011;1016;48.770;9.154;2022-12-29T16:51:06;14.27;;;0.93;;
2023;SDS011;1016;48.770;9.154;2022-12-29T16:53:39;15.10;;;1.00;;
2023;SDS011;1016;48.770;9.154;2022-12-29T16:56:09;15.77;;;1.20;;
2023;SDS011;1016;48.770;9.154;2022-12-29T16:58:40;16.13;;;1.30;;
2023;SDS011;1016;48.770;9.154;2022-12-29T17:01:10;15.03;;;1.07;;
2023;SDS011;1016;48.770;9.154;2022-12-29T17:03:40;14.43;;;1.20;;
2023;SDS011;1016;48.770;9.154;2022-12-29T17:06:16;14.80;;;1.13;;
2023;SDS011;1016;48.770;9.154;2022-12-29T17:08:44;14.23;;;1.10;;
2023;SDS011;1016;48.770;9.154;2022-12-29T17:11:24;16.43;;;1.40;;
2023;SDS011;1016;48.770;9.154;2022-12-29T17:14:17;15.23;;;1.47;;
2023;SDS011;1016;48.770;9.154;2022-12-29T17:17:30;14.67;;;1.20;;
2023;SDS011;1016;48.770;9.154;2022-12-29T17:19:57;14.63;;;1.30;;
2023;SDS011;1016;48.770;9.154;2022-12-29T17:22:28;16.20;;;1.40;;
2023;SDS011;1016;48.770;9.154;2022-12-29T17:24:55;17.00;;;1.70;;
2023;SDS011;1016;48.770;9.154;2022-12-29T17:29:54;14.80;;;1.20;;
2023;SDS011;1016;48.770;9.154;2022-12-29T17:32:22;15.00;;;1.30;;